Time;durP1;ratioP1;P1;durP2;ratioP2;P2;SDS_P1;SDS_P2;PMS_P1;PMS_P2;Temp;Humidity;BMP_temperature;BMP_pressure;BME280_temperature;BME280_humidity;BME280_pressure;Samples;Min_cycle;Max_cycle;Signal;HPM_P1;HPM_P2
2022/02/03 00:00:04;;;;;;;14.40;9.05;;;;;;;;;;5094332;28;20476;-70
2022/02/03 00:02:43;;;;;;;16.67;9.30;;;;;;;;;;5094710;28;20035;-69
2022/02/03 00:05:14;;;;;;;17.30;8.68;;;;;;;;;;5094576;28;20476;-69
2022/02/03 00:16:30;;;;;;;19.55;9.60;;;;;;;;;;5094417;28;20081;-69
2022/02/03 00:24:30;;;;;;;13.23;7.20;;;;;;;;;;5094550;28;20031;-69
2022/02/03 00:27:15;;;;;;;11.90;7.00;;;;;;;;;;5093861;28;20026;-69
2022/02/03 00:29:55;;;;;;;13.02;7.13;;;;;;;;;;5094259;28;20301;-69
2022/02/03 00:48:57;;;;;;;18.98;7.75;;;;;;;;;;5093747;28;20434;-69
2022/02/03 00:51:24;;;;;;;14.02;8.40;;;;;;;;;;5094418;28;20020;-69
2022/02/03 00:53:51;;;;;;;13.43;7.35;;;;;;;;;;5092365;28;20032;-69
2022/02/03 00:56:26;;;;;;;16.95;8.07;;;;;;;;;;5092064;28;20016;-69
2022/02/03 00:58:53;;;;;;;14.25;7.95;;;;;;;;;;5094100;28;20375;-69
2022/02/03 01:01:21;;;;;;;14.65;8.65;;;;;;;;;;5093661;28;20020;-69
2022/02/03 01:03:50;;;;;;;13.30;7.38;;;;;;;;;;5093171;28;20020;-68
2022/02/03 01:06:18;;;;;;;12.95;7.30;;;;;;;;;;5093677;28;20027;-69
2022/02/03 01:08:47;;;;;;;11.98;7.63;;;;;;;;;;5092955;28;20112;-68
2022/02/03 01:11:22;;;;;;;12.82;6.10;;;;;;;;;;5093580;28;20099;-68
2022/02/03 01:14:01;;;;;;;13.02;6.55;;;;;;;;;;5091984;28;20077;-68
2022/02/03 01:16:45;;;;;;;10.57;5.63;;;;;;;;;;5093292;28;20024;-68
2022/02/03 01:44:46;;;;;;;13.98;6.15;;;;;;;;;;5092863;28;20384;-68
2022/02/03 01:47:08;;;;;;;12.55;6.03;;;;;;;;;;5089991;28;20107;-69
2022/02/03 01:52:30;;;;;;;10.57;5.25;;;;;;;;;;5092699;28;20430;-68
2022/02/03 01:54:57;;;;;;;10.95;4.97;;;;;;;;;;5093517;28;20178;-69
2022/02/03 01:57:29;;;;;;;18.35;5.88;;;;;;;;;;5093152;28;20020;-68
2022/02/03 02:00:00;;;;;;;9.07;4.88;;;;;;;;;;5091447;28;20035;-69
2022/02/03 02:02:31;;;;;;;13.93;5.18;;;;;;;;;;5093127;28;20024;-69
2022/02/03 02:05:02;;;;;;;11.77;5.43;;;;;;;;;;5093184;28;20429;-69
2022/02/03 02:07:53;;;;;;;14.40;5.20;;;;;;;;;;5093098;28;20020;-68
2022/02/03 02:11:07;;;;;;;10.70;4.55;;;;;;;;;;5093456;28;20031;-68
2022/02/03 02:19:11;;;;;;;11.70;5.05;;;;;;;;;;5093214;28;20031;-69
2022/02/03 02:39:23;;;;;;;6.78;4.10;;;;;;;;;;5096339;28;20035;-68
2022/02/03 02:42:30;;;;;;;8.55;4.13;;;;;;;;;;5082281;28;20066;-68
2022/02/03 02:44:30;;;;;;;8.38;3.78;;;;;;;;;;5087833;28;20036;-68
2022/02/03 02:46:57;;;;;;;7.57;4.13;;;;;;;;;;5096147;28;20028;-68
2022/02/03 02:49:23;;;;;;;6.63;3.58;;;;;;;;;;5095670;28;20023;-68
2022/02/03 02:51:54;;;;;;;7.68;3.95;;;;;;;;;;5096351;28;20098;-69
2022/02/03 02:54:43;;;;;;;7.03;3.92;;;;;;;;;;5095505;28;20028;-69
2022/02/03 03:30:22;;;;;;;6.68;3.40;;;;;;;;;;5094914;28;20039;-69
2022/02/03 03:36:10;;;;;;;6.80;3.80;;;;;;;;;;5095130;28;20035;-69
2022/02/03 03:38:40;;;;;;;8.00;3.85;;;;;;;;;;5094777;28;20042;-68
2022/02/03 03:41:06;;;;;;;7.82;3.25;;;;;;;;;;5095191;28;20024;-68
2022/02/03 03:43:35;;;;;;;8.63;3.63;;;;;;;;;;5094591;28;20380;-69
2022/02/03 03:46:20;;;;;;;6.30;3.25;;;;;;;;;;5093730;28;20392;-69
2022/02/03 03:48:58;;;;;;;7.75;3.60;;;;;;;;;;5094933;28;20027;-69
2022/02/03 03:51:28;;;;;;;6.45;3.60;;;;;;;;;;5094547;28;20028;-69
2022/02/03 03:54:04;;;;;;;7.13;3.53;;;;;;;;;;5094741;28;20092;-69
2022/02/03 03:56:55;;;;;;;9.15;4.22;;;;;;;;;;5095038;28;20019;-68
2022/02/03 04:00:05;;;;;;;6.28;3.58;;;;;;;;;;5094276;28;20438;-69
2022/02/03 04:42:33;;;;;;;7.05;3.40;;;;;;;;;;5093708;28;20076;-68
2022/02/03 04:51:09;;;;;;;6.50;3.85;;;;;;;;;;5093995;28;20071;-69
2022/02/03 05:44:24;;;;;;;9.50;4.93;;;;;;;;;;5092837;28;20035;-68
2022/02/03 06:03:30;;;;;;;12.80;6.03;;;;;;;;;;5095492;28;20561;-66
2022/02/03 06:24:34;;;;;;;28.83;16.83;;;;;;;;;;5094570;28;20028;-69
2022/02/03 06:29:39;;;;;;;26.27;11.50;;;;;;;;;;5074343;28;20027;-71
2022/02/03 06:32:06;;;;;;;21.77;8.57;;;;;;;;;;5076672;28;20358;-70
2022/02/03 06:34:32;;;;;;;17.13;8.65;;;;;;;;;;5110393;28;20036;-69
2022/02/03 06:36:58;;;;;;;16.88;9.07;;;;;;;;;;5110880;28;20440;-72
2022/02/03 06:39:29;;;;;;;17.75;9.27;;;;;;;;;;5075625;28;20100;-71
2022/02/03 06:41:58;;;;;;;24.60;11.30;;;;;;;;;;5095619;28;20028;-72
2022/02/03 06:44:30;;;;;;;20.42;10.35;;;;;;;;;;5088061;28;20042;-70
2022/02/03 06:47:02;;;;;;;14.48;8.82;;;;;;;;;;5076268;28;20039;-69
2022/02/03 06:49:58;;;;;;;14.68;9.23;;;;;;;;;;5069519;28;20024;-70
2022/02/03 06:52:30;;;;;;;17.75;9.07;;;;;;;;;;5072125;28;20132;-71
2022/02/03 06:55:07;;;;;;;15.57;7.85;;;;;;;;;;5087093;28;20074;-72
2022/02/03 06:57:43;;;;;;;16.35;9.30;;;;;;;;;;5087420;28;20103;-71
2022/02/03 07:00:23;;;;;;;14.38;7.82;;;;;;;;;;5089251;28;20058;-72
2022/02/03 07:02:54;;;;;;;15.35;8.88;;;;;;;;;;5088120;28;20032;-72
2022/02/03 07:05:24;;;;;;;17.98;9.55;;;;;;;;;;5080258;28;20016;-71
2022/02/03 07:07:50;;;;;;;14.43;9.10;;;;;;;;;;5082016;28;20013;-70
2022/02/03 07:10:17;;;;;;;20.20;10.15;;;;;;;;;;5080935;28;20028;-69
2022/02/03 07:12:43;;;;;;;24.80;13.63;;;;;;;;;;5092980;28;20067;-71
2022/02/03 07:15:10;;;;;;;20.38;10.18;;;;;;;;;;5094236;28;20077;-71
2022/02/03 07:17:38;;;;;;;23.38;12.82;;;;;;;;;;5091731;28;20059;-70
2022/02/03 07:20:06;;;;;;;19.88;10.00;;;;;;;;;;5093356;28;20077;-69
2022/02/03 07:22:33;;;;;;;14.80;7.57;;;;;;;;;;5093654;28;20016;-72
2022/02/03 07:25:00;;;;;;;13.35;7.40;;;;;;;;;;5094485;28;20036;-70
2022/02/03 07:27:26;;;;;;;15.25;8.90;;;;;;;;;;5089004;28;20020;-70
2022/02/03 07:29:54;;;;;;;18.38;9.20;;;;;;;;;;5089414;28;20024;-73
2022/02/03 07:32:24;;;;;;;19.27;10.20;;;;;;;;;;5094262;28;20023;-72
2022/02/03 07:34:53;;;;;;;16.85;10.40;;;;;;;;;;5092891;28;20043;-71
2022/02/03 07:37:22;;;;;;;14.73;8.18;;;;;;;;;;5093891;28;20027;-70
2022/02/03 07:39:48;;;;;;;14.32;8.73;;;;;;;;;;5085032;28;20537;-68
2022/02/03 07:42:14;;;;;;;20.98;10.77;;;;;;;;;;5071978;28;20100;-68
2022/02/03 07:44:41;;;;;;;20.52;11.45;;;;;;;;;;5071190;28;20120;-71
2022/02/03 07:47:07;;;;;;;21.38;11.90;;;;;;;;;;5071344;28;20050;-67
2022/02/03 07:49:34;;;;;;;22.88;12.13;;;;;;;;;;5074027;28;20024;-70
2022/02/03 07:52:05;;;;;;;16.60;9.13;;;;;;;;;;5073135;28;20021;-67
2022/02/03 07:54:32;;;;;;;20.92;11.85;;;;;;;;;;5072323;28;20389;-71
2022/02/03 07:56:58;;;;;;;17.33;9.75;;;;;;;;;;5069462;28;20021;-72
2022/02/03 07:59:25;;;;;;;26.10;12.38;;;;;;;;;;5072989;28;20472;-70
2022/02/03 08:01:51;;;;;;;27.02;12.73;;;;;;;;;;5073391;28;20017;-69
2022/02/03 08:04:21;;;;;;;30.80;15.95;;;;;;;;;;5073271;28;20020;-72
2022/02/03 08:06:48;;;;;;;27.85;13.52;;;;;;;;;;5072229;28;20031;-70
2022/02/03 08:09:28;;;;;;;25.08;12.52;;;;;;;;;;5072019;28;20021;-76
2022/02/03 08:11:55;;;;;;;25.23;13.48;;;;;;;;;;5068606;28;20028;-68
2022/02/03 08:14:35;;;;;;;20.42;11.10;;;;;;;;;;5071588;28;20094;-70
2022/02/03 08:17:06;;;;;;;26.25;14.40;;;;;;;;;;5073194;28;20427;-69
2022/02/03 08:19:53;;;;;;;23.00;12.10;;;;;;;;;;5070177;28;20016;-70
2022/02/03 08:22:25;;;;;;;28.23;14.10;;;;;;;;;;5081221;28;20166;-72
2022/02/03 08:24:57;;;;;;;32.03;19.40;;;;;;;;;;5092844;28;20150;-70
2022/02/03 08:32:45;;;;;;;37.47;22.90;;;;;;;;;;5071800;28;20062;-68
2022/02/03 08:35:35;;;;;;;24.55;15.48;;;;;;;;;;5087704;28;20028;-69
2022/02/03 08:38:02;;;;;;;20.85;12.30;;;;;;;;;;5082842;28;20040;-68
2022/02/03 08:40:32;;;;;;;20.45;12.02;;;;;;;;;;5091111;28;20082;-69
2022/02/03 08:42:58;;;;;;;30.33;18.33;;;;;;;;;;5092459;28;20113;-73
2022/02/03 08:45:25;;;;;;;32.65;20.85;;;;;;;;;;5092653;28;20090;-67
2022/02/03 08:47:51;;;;;;;31.73;18.50;;;;;;;;;;5092575;28;20044;-69
2022/02/03 08:50:18;;;;;;;25.98;15.82;;;;;;;;;;5092888;28;20480;-69
2022/02/03 08:52:57;;;;;;;21.25;12.85;;;;;;;;;;5092873;28;20066;-70
2022/02/03 08:55:43;;;;;;;18.13;10.88;;;;;;;;;;5091920;28;20048;-67
2022/02/03 09:57:54;;;;;;;22.05;12.10;;;;;;;;;;5093995;28;20016;-65
2022/02/03 10:00:42;;;;;;;27.25;15.60;;;;;;;;;;5095334;28;20449;-68
2022/02/03 10:03:15;;;;;;;28.35;15.27;;;;;;;;;;5095823;28;20044;-68
2022/02/03 10:06:12;;;;;;;23.27;12.82;;;;;;;;;;5095706;28;20020;-68
2022/02/03 10:08:38;;;;;;;18.67;11.32;;;;;;;;;;5095717;28;20028;-69
2022/02/03 10:11:15;;;;;;;20.85;11.68;;;;;;;;;;5095358;28;20480;-69
2022/02/03 10:13:43;;;;;;;30.38;16.55;;;;;;;;;;5095239;28;20123;-68
2022/02/03 10:16:09;;;;;;;13.98;8.75;;;;;;;;;;5095215;28;20099;-68
2022/02/03 10:18:36;;;;;;;20.85;9.88;;;;;;;;;;5080080;28;20024;-67
2022/02/03 10:21:03;;;;;;;15.93;10.10;;;;;;;;;;5074724;28;20025;-66
2022/02/03 10:23:31;;;;;;;17.05;8.90;;;;;;;;;;5075008;28;20029;-71
2022/02/03 10:26:07;;;;;;;19.92;11.88;;;;;;;;;;5074375;28;20040;-70
2022/02/03 10:28:36;;;;;;;21.58;10.20;;;;;;;;;;5075084;28;20028;-70
2022/02/03 10:31:04;;;;;;;16.65;9.43;;;;;;;;;;5071391;28;20028;-68
2022/02/03 10:33:37;;;;;;;15.82;9.90;;;;;;;;;;5070842;28;20071;-68
2022/02/03 10:36:21;;;;;;;22.95;11.93;;;;;;;;;;5073742;28;20016;-69
2022/02/03 10:39:10;;;;;;;28.95;14.77;;;;;;;;;;5072709;28;20040;-68
